createdAt,value
2022-10-22T00:05:18.207Z,18.52
2022-10-22T00:15:19.775Z,18.53
2022-10-22T00:25:21.335Z,18.49
2022-10-22T00:35:22.890Z,18.55
2022-10-22T00:45:28.145Z,18.36
2022-10-22T00:55:30.571Z,18.19
2022-10-22T01:05:42.968Z,18.31
2022-10-22T01:16:10.581Z,18.22
2022-10-22T01:26:42.821Z,18.39
2022-10-22T01:36:46.857Z,18.44
2022-10-22T01:46:51.564Z,18.35
2022-10-22T01:57:08.434Z,18.26
2022-10-22T02:07:13.906Z,18.26
2022-10-22T02:17:19.864Z,18.32
2022-10-22T02:27:35.994Z,18.44
2022-10-22T02:37:38.579Z,18.32
2022-10-22T02:47:40.020Z,18.22
2022-10-22T02:57:41.759Z,18.19
2022-10-22T03:07:43.610Z,18.28
2022-10-22T03:17:45.178Z,18.28
2022-10-22T03:27:47.628Z,18.30
2022-10-22T03:37:49.631Z,18.26
2022-10-22T03:47:51.098Z,18.20
2022-10-22T03:57:52.849Z,18.01
2022-10-22T04:07:54.373Z,17.93
2022-10-22T04:17:56.080Z,17.63
2022-10-22T04:27:57.509Z,17.61
2022-10-22T04:37:58.974Z,17.47
2022-10-22T04:48:00.642Z,17.28
2022-10-22T04:58:02.127Z,17.44
2022-10-22T05:08:03.645Z,17.52
2022-10-22T05:18:05.161Z,17.53
2022-10-22T05:28:06.674Z,17.45
2022-10-22T05:38:08.115Z,17.47
2022-10-22T05:48:09.822Z,17.46
2022-10-22T05:58:12.611Z,17.52
2022-10-22T06:08:18.261Z,17.49
2022-10-22T06:18:20.642Z,17.46
2022-10-22T06:38:23.590Z,17.56
2022-10-22T06:48:25.019Z,17.61
2022-10-22T06:58:26.573Z,17.46
2022-10-22T07:08:28.554Z,17.60
2022-10-22T07:18:30.643Z,17.96
2022-10-22T07:28:33.450Z,18.27
2022-10-22T07:38:35.775Z,18.44
2022-10-22T07:48:37.830Z,18.93
2022-10-22T07:58:39.557Z,19.06
2022-10-22T08:08:41.956Z,19.13
2022-10-22T08:18:43.539Z,19.57
2022-10-22T08:28:45.165Z,19.72
2022-10-22T08:38:46.654Z,19.56
2022-10-22T08:48:52.455Z,19.65
2022-10-22T08:59:00.155Z,19.88
2022-10-22T09:09:09.686Z,20.01
2022-10-22T09:19:25.943Z,20.18
2022-10-22T09:29:33.424Z,20.47
2022-10-22T09:39:45.142Z,20.67
2022-10-22T09:49:46.635Z,22.46
2022-10-22T09:59:50.394Z,24.10
2022-10-22T10:09:53.929Z,25.37
2022-10-22T10:20:21.524Z,25.60
2022-10-22T10:30:25.953Z,28.66
2022-10-22T10:40:44.715Z,31.95
2022-10-22T10:51:05.155Z,35.20
2022-10-22T11:01:19.831Z,34.04
2022-10-22T11:11:30.441Z,29.64
2022-10-22T11:21:47.349Z,26.65
2022-10-22T11:31:50.925Z,26.38
2022-10-22T11:41:53.185Z,26.52
2022-10-22T11:52:38.070Z,25.94
2022-10-22T12:02:43.784Z,26.04
2022-10-22T12:12:55.638Z,26.87
2022-10-22T12:22:59.731Z,26.29
2022-10-22T12:33:04.301Z,25.42
2022-10-22T12:43:12.400Z,25.36
2022-10-22T12:53:18.525Z,25.11
2022-10-22T13:03:33.537Z,24.46
2022-10-22T13:13:37.912Z,25.07
2022-10-22T13:23:40.412Z,25.24
2022-10-22T13:33:44.644Z,23.45
2022-10-22T13:43:46.175Z,23.25
2022-10-22T13:53:50.128Z,23.62
2022-10-22T14:03:55.381Z,23.54
2022-10-22T14:13:57.363Z,23.42
2022-10-22T14:23:58.805Z,23.12
2022-10-22T14:34:00.267Z,22.47
2022-10-22T14:44:04.131Z,22.50
2022-10-22T14:54:05.604Z,22.18
2022-10-22T15:04:07.043Z,21.96
2022-10-22T15:14:09.183Z,21.99
2022-10-22T15:24:10.845Z,21.68
2022-10-22T15:34:12.960Z,21.40
2022-10-22T15:44:17.955Z,21.02
2022-10-22T15:54:22.518Z,20.72
2022-10-22T16:04:23.978Z,20.41
2022-10-22T16:14:25.457Z,20.04
2022-10-22T16:24:27.141Z,19.65
2022-10-22T16:34:28.822Z,19.32
2022-10-22T16:44:30.256Z,19.01
2022-10-22T16:54:31.748Z,18.73
2022-10-22T17:04:34.181Z,18.51
2022-10-22T17:14:35.755Z,18.38
2022-10-22T17:24:38.783Z,18.24
2022-10-22T17:34:40.246Z,18.06
2022-10-22T17:44:41.690Z,17.86
2022-10-22T17:54:43.972Z,17.68
2022-10-22T18:04:45.580Z,17.51
2022-10-22T18:14:47.112Z,17.37
2022-10-22T18:24:48.613Z,17.28
2022-10-22T18:34:50.073Z,17.16
2022-10-22T18:44:51.622Z,17.05
2022-10-22T18:54:53.086Z,16.92
2022-10-22T19:04:54.533Z,16.79
2022-10-22T19:14:56.029Z,16.74
2022-10-22T19:24:58.838Z,16.54
2022-10-22T19:35:00.282Z,16.41
2022-10-22T19:45:02.104Z,16.39
2022-10-22T19:55:03.905Z,16.27
2022-10-22T20:05:05.717Z,16.24
2022-10-22T20:15:07.897Z,16.14
2022-10-22T20:25:10.525Z,16.07
2022-10-22T20:35:14.680Z,16.05
2022-10-22T20:45:16.224Z,16.00
2022-10-22T20:55:17.777Z,15.96
2022-10-22T21:05:19.217Z,15.89
2022-10-22T21:15:20.697Z,15.90
2022-10-22T21:25:22.159Z,15.80
2022-10-22T21:35:24.474Z,15.76
2022-10-22T21:45:25.938Z,15.73
2022-10-22T21:55:27.406Z,15.72
2022-10-22T22:05:29.209Z,15.73
2022-10-22T22:15:31.642Z,15.71
2022-10-22T22:25:33.097Z,15.72
2022-10-22T22:35:36.914Z,15.73
2022-10-22T22:45:40.712Z,15.71
2022-10-22T22:55:42.169Z,15.69
2022-10-22T23:05:43.590Z,15.68
2022-10-22T23:15:45.070Z,15.65
2022-10-22T23:25:46.720Z,15.54
2022-10-22T23:35:48.224Z,15.43
2022-10-22T23:45:49.809Z,15.38
2022-10-22T23:55:51.278Z,15.26
